SLSB/SRJ METAR and TAF weather

Enter ICAO airport designator
Station Type Date Time Source
SLSB METAR 2022/01/07 21:00 UTC NOAA

SLSB 072100Z 35004KT 9999 SCT020 35/24 Q1004


Station Type Date Time Source
SLSB Decoded METAR 2022/01/07 21:00 UTC NOAA

San Borja, Bolivia (SLSB) 14-52S 066-52W
Jan 07, 2022 - 04:00 PM EST / 2022.01.07 2100 UTC
Wind: from the N (350 degrees) at 5 MPH (4 KT):0
Visibility: greater than 7 mile(s):0
Sky conditions: partly cloudy
Temperature: 95 F (35 C)
Heat index: 107.4 F (41.9 C):1
Dew Point: 75 F (24 C)
Relative Humidity: 53%
Pressure (altimeter): 29.65 in. Hg (1004 hPa)
ob: SLSB 072100Z 35004KT 9999 SCT020 35/24 Q1004
cycle: 21

Station Type Date Time Source
SLSB TAF UTC NOAA

Error!

Example: see airport list